Terminal Aerodrome Forecast
Issued by NWS Albany, NY

Current Version | Previous Version | Text Only | Print | Product List | Glossary Off
Versions: 1 2 3 4 5 6 7 8 9 10 11 12 13

000
FTUS41 KALY 091121
TAFALB
TAF
KALB 091121Z 0912/1012 27010KT P6SM SCT025
      TEMPO 0912/0914 BKN025
     FM091800 26007KT P6SM SCT060 OVC170
     FM092300 19007KT 6SM -RA BR SCT030 OVC040
     FM100300 VRB03KT 3SM -RA BR BKN015 OVC025
     FM100900 VRB03KT 3SM BR OVC015=

USA.gov is the U.S. government's official web portal to all federal, state and local government web resources and services.